Time;durP1;ratioP1;P1;durP2;ratioP2;P2;SDS_P1;SDS_P2;PMS_P1;PMS_P2;Temp;Humidity;BMP_temperature;BMP_pressure;BME280_temperature;BME280_humidity;BME280_pressure;Samples;Min_cycle;Max_cycle;Signal;HPM_P1;HPM_P2
2022/08/28 00:00:53;;;;;;;14.35;8.60;;;;;;;;;;4352124;32;20078;-64
2022/08/28 00:03:19;;;;;;;15.48;9.13;;;;;;;;;;4378146;32;20083;-64
2022/08/28 00:05:46;;;;;;;15.55;9.45;;;;;;;;;;4364530;32;20194;-65
2022/08/28 00:08:14;;;;;;;17.27;10.27;;;;;;;;;;4378193;32;20069;-65
2022/08/28 00:10:41;;;;;;;14.27;8.55;;;;;;;;;;4364318;32;20077;-64
2022/08/28 00:13:09;;;;;;;13.88;8.70;;;;;;;;;;4364614;32;20098;-65
2022/08/28 00:15:38;;;;;;;16.65;9.13;;;;;;;;;;4364211;32;20070;-64
2022/08/28 00:18:05;;;;;;;13.30;8.52;;;;;;;;;;4377893;32;20521;-65
2022/08/28 00:20:32;;;;;;;16.62;8.82;;;;;;;;;;4352415;32;20098;-65
2022/08/28 00:23:00;;;;;;;14.93;9.02;;;;;;;;;;4351591;32;20460;-66
2022/08/28 00:25:28;;;;;;;12.05;7.80;;;;;;;;;;4364290;32;20104;-65
2022/08/28 00:27:56;;;;;;;14.82;8.57;;;;;;;;;;4364086;32;20162;-65
2022/08/28 00:30:29;;;;;;;13.38;8.88;;;;;;;;;;4363935;32;20104;-65
2022/08/28 00:32:58;;;;;;;16.23;9.50;;;;;;;;;;4364091;32;20096;-65
2022/08/28 00:35:26;;;;;;;13.90;8.75;;;;;;;;;;4363868;32;20089;-67
2022/08/28 00:37:56;;;;;;;11.85;8.63;;;;;;;;;;4365285;32;20090;-65
2022/08/28 00:40:28;;;;;;;13.10;8.93;;;;;;;;;;4364372;32;20146;-65
2022/08/28 00:42:55;;;;;;;14.87;8.30;;;;;;;;;;4364009;32;20210;-66
2022/08/28 00:45:23;;;;;;;13.62;8.40;;;;;;;;;;4363218;32;20168;-65
2022/08/28 00:47:50;;;;;;;17.30;8.82;;;;;;;;;;4353932;32;20078;-66
2022/08/28 00:50:19;;;;;;;14.05;9.23;;;;;;;;;;4366078;32;20141;-66
2022/08/28 00:52:49;;;;;;;11.43;8.48;;;;;;;;;;4339763;32;20078;-65
2022/08/28 00:55:21;;;;;;;11.90;8.52;;;;;;;;;;4363800;32;20073;-65
2022/08/28 00:57:54;;;;;;;18.62;9.23;;;;;;;;;;4364170;32;20111;-65
2022/08/28 01:00:37;;;;;;;11.55;8.02;;;;;;;;;;4364013;32;20090;-65
2022/08/28 01:03:04;;;;;;;12.60;9.02;;;;;;;;;;4363733;32;20166;-65
2022/08/28 01:05:33;;;;;;;13.27;8.68;;;;;;;;;;4363729;32;20153;-65
2022/08/28 01:08:00;;;;;;;15.10;9.60;;;;;;;;;;4351692;32;20085;-65
2022/08/28 01:10:29;;;;;;;15.95;8.93;;;;;;;;;;4351133;32;20580;-65
2022/08/28 01:12:57;;;;;;;14.65;8.98;;;;;;;;;;4363230;32;20525;-64
2022/08/28 01:15:32;;;;;;;15.23;9.15;;;;;;;;;;4351589;32;20074;-65
2022/08/28 01:18:05;;;;;;;15.00;9.80;;;;;;;;;;4363392;32;20078;-66
2022/08/28 01:20:35;;;;;;;18.05;9.73;;;;;;;;;;4363490;32;20068;-66
2022/08/28 01:23:39;;;;;;;14.38;9.27;;;;;;;;;;4338775;32;20504;-65
2022/08/28 01:26:06;;;;;;;16.50;9.40;;;;;;;;;;4345790;32;20085;-65
2022/08/28 01:28:33;;;;;;;16.27;9.00;;;;;;;;;;4376983;32;20115;-66
2022/08/28 01:30:59;;;;;;;14.63;9.32;;;;;;;;;;4363209;32;20090;-64
2022/08/28 01:33:26;;;;;;;15.77;9.73;;;;;;;;;;4377452;32;20583;-66
2022/08/28 01:35:53;;;;;;;16.00;9.02;;;;;;;;;;4350749;32;20611;-65
2022/08/28 01:38:19;;;;;;;14.30;9.60;;;;;;;;;;4363191;32;20149;-65
2022/08/28 01:40:48;;;;;;;13.55;9.00;;;;;;;;;;4363088;32;20078;-66
2022/08/28 01:43:20;;;;;;;15.57;10.55;;;;;;;;;;4350503;32;20081;-65
2022/08/28 01:45:51;;;;;;;14.45;10.98;;;;;;;;;;4376685;32;20147;-65
2022/08/28 01:48:19;;;;;;;16.77;11.27;;;;;;;;;;4363746;32;20575;-65
2022/08/28 01:50:46;;;;;;;17.37;9.82;;;;;;;;;;4350774;32;20516;-65
2022/08/28 01:53:15;;;;;;;14.85;10.32;;;;;;;;;;4362372;32;20093;-65
2022/08/28 01:55:42;;;;;;;18.08;9.90;;;;;;;;;;4376407;32;20070;-65
2022/08/28 01:58:10;;;;;;;17.30;10.82;;;;;;;;;;4363040;32;20062;-65
2022/08/28 02:00:38;;;;;;;13.98;10.00;;;;;;;;;;4350460;32;20085;-65
2022/08/28 02:03:05;;;;;;;17.60;10.75;;;;;;;;;;4363074;32;20094;-65
2022/08/28 02:05:32;;;;;;;16.55;10.20;;;;;;;;;;4376684;32;20086;-65
2022/08/28 02:08:01;;;;;;;15.73;11.18;;;;;;;;;;4350304;32;20158;-66
2022/08/28 02:10:30;;;;;;;20.17;11.30;;;;;;;;;;4362834;32;20073;-65
2022/08/28 02:12:56;;;;;;;20.55;10.57;;;;;;;;;;4362947;32;20097;-65
2022/08/28 02:15:24;;;;;;;15.85;10.45;;;;;;;;;;4362984;32;20081;-65
2022/08/28 02:17:51;;;;;;;16.48;10.95;;;;;;;;;;4363380;32;20078;-65
2022/08/28 02:20:18;;;;;;;17.87;11.12;;;;;;;;;;4376625;32;20517;-65
2022/08/28 02:22:45;;;;;;;16.15;10.85;;;;;;;;;;4376449;32;20092;-66
2022/08/28 02:25:12;;;;;;;17.60;11.70;;;;;;;;;;4363230;32;20086;-65
2022/08/28 02:27:40;;;;;;;23.58;11.63;;;;;;;;;;4376510;32;20162;-66
2022/08/28 02:30:08;;;;;;;19.15;12.48;;;;;;;;;;4362661;32;20166;-65
2022/08/28 02:32:35;;;;;;;20.90;12.25;;;;;;;;;;4362483;32;20157;-65
2022/08/28 02:35:02;;;;;;;17.75;10.93;;;;;;;;;;4376154;32;20093;-65
2022/08/28 02:37:29;;;;;;;21.85;10.82;;;;;;;;;;4349661;32;20583;-65
2022/08/28 02:39:56;;;;;;;20.80;11.57;;;;;;;;;;4376239;32;20157;-65
2022/08/28 02:42:25;;;;;;;22.90;11.98;;;;;;;;;;4362853;32;20070;-65
2022/08/28 02:44:52;;;;;;;20.67;10.70;;;;;;;;;;4361917;32;20438;-64
2022/08/28 02:47:19;;;;;;;19.55;11.35;;;;;;;;;;4362865;32;20162;-65
2022/08/28 02:49:46;;;;;;;22.02;12.93;;;;;;;;;;4362044;32;20193;-66
2022/08/28 02:52:13;;;;;;;19.83;11.27;;;;;;;;;;4362379;32;20079;-66
2022/08/28 02:54:40;;;;;;;26.48;13.88;;;;;;;;;;4362211;32;20167;-65
2022/08/28 02:57:07;;;;;;;18.98;11.77;;;;;;;;;;4376209;32;20093;-64
2022/08/28 02:59:37;;;;;;;19.00;11.43;;;;;;;;;;4362242;32;20519;-65
2022/08/28 03:02:06;;;;;;;20.95;11.40;;;;;;;;;;4362316;32;20150;-65
2022/08/28 03:04:34;;;;;;;19.00;11.88;;;;;;;;;;4361947;32;20533;-66
2022/08/28 03:07:00;;;;;;;20.05;11.75;;;;;;;;;;4365233;32;20157;-65
2022/08/28 03:09:27;;;;;;;23.65;12.00;;;;;;;;;;4378981;32;20112;-65
2022/08/28 03:11:54;;;;;;;22.35;10.90;;;;;;;;;;4352920;32;20576;-65
2022/08/28 03:14:25;;;;;;;18.37;11.80;;;;;;;;;;4365169;32;20082;-66
2022/08/28 03:16:51;;;;;;;19.17;11.98;;;;;;;;;;4380734;32;20093;-65
2022/08/28 03:19:18;;;;;;;19.15;13.13;;;;;;;;;;4366858;32;20217;-66
2022/08/28 03:21:45;;;;;;;19.48;11.90;;;;;;;;;;4364805;32;20162;-65
2022/08/28 03:24:11;;;;;;;25.83;13.25;;;;;;;;;;4378568;32;20109;-65
2022/08/28 03:26:38;;;;;;;20.67;12.65;;;;;;;;;;4379038;32;20521;-65
2022/08/28 03:29:05;;;;;;;22.58;12.52;;;;;;;;;;4378963;32;20148;-65
2022/08/28 03:31:34;;;;;;;19.48;12.88;;;;;;;;;;4378666;32;20089;-65
2022/08/28 03:34:01;;;;;;;18.90;12.02;;;;;;;;;;4365350;32;20107;-65
2022/08/28 03:36:28;;;;;;;22.27;14.13;;;;;;;;;;4365305;32;20157;-66
2022/08/28 03:38:58;;;;;;;25.80;14.60;;;;;;;;;;4379107;32;20120;-66
2022/08/28 03:41:27;;;;;;;28.52;14.32;;;;;;;;;;4378825;32;20085;-66
2022/08/28 03:43:56;;;;;;;27.23;15.13;;;;;;;;;;4351980;32;20185;-66
2022/08/28 03:46:23;;;;;;;24.27;15.30;;;;;;;;;;4365118;32;20086;-66
2022/08/28 03:48:51;;;;;;;23.42;14.85;;;;;;;;;;4352255;32;20089;-65
2022/08/28 03:51:20;;;;;;;24.15;15.07;;;;;;;;;;4378918;32;20097;-65
2022/08/28 03:53:47;;;;;;;22.70;14.65;;;;;;;;;;4352257;32;20081;-65
2022/08/28 03:56:17;;;;;;;28.38;15.75;;;;;;;;;;4364737;32;20082;-67
2022/08/28 03:58:44;;;;;;;22.48;15.15;;;;;;;;;;4364970;32;20128;-65
2022/08/28 04:01:11;;;;;;;27.17;16.08;;;;;;;;;;4340127;32;20189;-65
2022/08/28 04:03:38;;;;;;;25.77;15.63;;;;;;;;;;4378755;32;20150;-65
2022/08/28 04:06:04;;;;;;;27.08;16.33;;;;;;;;;;4364974;32;20081;-65
2022/08/28 04:08:31;;;;;;;25.88;17.52;;;;;;;;;;4364597;32;20167;-65
2022/08/28 04:10:59;;;;;;;27.25;15.65;;;;;;;;;;4378649;32;20085;-65
2022/08/28 04:13:26;;;;;;;23.12;15.10;;;;;;;;;;4364474;32;20090;-66
2022/08/28 04:16:01;;;;;;;26.77;15.38;;;;;;;;;;4351869;32;20086;-66
2022/08/28 04:18:28;;;;;;;28.23;15.02;;;;;;;;;;4364379;32;20084;-65
2022/08/28 04:20:59;;;;;;;26.60;14.93;;;;;;;;;;4378238;32;20153;-65
2022/08/28 04:23:26;;;;;;;27.75;15.10;;;;;;;;;;4364105;32;20142;-65
2022/08/28 04:25:53;;;;;;;25.52;13.95;;;;;;;;;;4364020;32;20448;-65
2022/08/28 04:28:21;;;;;;;23.35;14.23;;;;;;;;;;4378107;32;20074;-65
2022/08/28 04:30:53;;;;;;;21.70;13.32;;;;;;;;;;4364039;32;20088;-65
2022/08/28 04:33:23;;;;;;;23.48;13.62;;;;;;;;;;4351949;32;20074;-65
2022/08/28 04:35:50;;;;;;;24.92;15.25;;;;;;;;;;4364424;32;20077;-65
2022/08/28 04:38:17;;;;;;;28.12;15.73;;;;;;;;;;4363943;32;20633;-66
2022/08/28 04:40:44;;;;;;;27.05;16.70;;;;;;;;;;4364900;32;20081;-68
2022/08/28 04:43:11;;;;;;;28.42;15.30;;;;;;;;;;4365097;32;20445;-66
2022/08/28 04:45:45;;;;;;;25.83;16.83;;;;;;;;;;4363894;32;20082;-66
2022/08/28 04:48:13;;;;;;;25.00;17.60;;;;;;;;;;4378114;32;20077;-65
2022/08/28 04:50:44;;;;;;;35.28;18.35;;;;;;;;;;4377260;32;20509;-67
2022/08/28 04:53:11;;;;;;;27.83;17.67;;;;;;;;;;4364419;32;20133;-65
2022/08/28 04:55:45;;;;;;;31.15;18.00;;;;;;;;;;4351222;32;20080;-66
2022/08/28 04:58:12;;;;;;;32.22;20.62;;;;;;;;;;4351629;32;20080;-64
2022/08/28 05:00:41;;;;;;;30.85;19.45;;;;;;;;;;4363483;32;20070;-65
2022/08/28 05:03:10;;;;;;;33.42;19.65;;;;;;;;;;4338473;32;20169;-68
2022/08/28 05:05:48;;;;;;;31.20;19.05;;;;;;;;;;4363796;32;20159;-65
2022/08/28 05:08:16;;;;;;;29.92;18.95;;;;;;;;;;4363522;32;20093;-65
2022/08/28 05:10:43;;;;;;;33.13;19.85;;;;;;;;;;4363385;32;20075;-66
2022/08/28 05:13:11;;;;;;;36.83;22.13;;;;;;;;;;4363311;32;20477;-65
2022/08/28 05:15:39;;;;;;;32.50;22.10;;;;;;;;;;4350772;32;20081;-66
2022/08/28 05:18:06;;;;;;;37.20;22.15;;;;;;;;;;4363620;32;20526;-65
2022/08/28 05:20:41;;;;;;;42.03;22.20;;;;;;;;;;4351042;32;20078;-65
2022/08/28 05:23:08;;;;;;;37.28;21.37;;;;;;;;;;4363629;32;20098;-65
2022/08/28 05:25:37;;;;;;;36.40;21.73;;;;;;;;;;4351298;32;20157;-65
2022/08/28 05:28:04;;;;;;;43.70;23.62;;;;;;;;;;4362703;32;20528;-65
2022/08/28 05:30:32;;;;;;;44.17;25.00;;;;;;;;;;4351193;32;20073;-66
2022/08/28 05:32:58;;;;;;;48.17;24.92;;;;;;;;;;4363624;32;20528;-65
2022/08/28 05:35:26;;;;;;;44.15;24.05;;;;;;;;;;4363521;32;20093;-65
2022/08/28 05:37:53;;;;;;;43.83;21.87;;;;;;;;;;4377085;32;20142;-66
2022/08/28 05:40:21;;;;;;;38.28;21.20;;;;;;;;;;4338351;32;20096;-65
2022/08/28 05:42:51;;;;;;;39.95;21.10;;;;;;;;;;4362938;32;20084;-65
2022/08/28 05:45:18;;;;;;;37.15;20.77;;;;;;;;;;4363004;32;20189;-66
2022/08/28 05:47:45;;;;;;;30.40;18.12;;;;;;;;;;4377567;32;20059;-65
2022/08/28 05:50:12;;;;;;;34.25;17.83;;;;;;;;;;4376886;32;20152;-66
2022/08/28 05:52:40;;;;;;;26.40;16.40;;;;;;;;;;4376972;32;20090;-66
2022/08/28 05:55:09;;;;;;;24.50;13.75;;;;;;;;;;4363905;32;20077;-65
2022/08/28 05:57:35;;;;;;;25.60;14.18;;;;;;;;;;4363742;32;20488;-65
2022/08/28 06:00:03;;;;;;;33.38;15.10;;;;;;;;;;4362932;32;20093;-67
2022/08/28 06:02:30;;;;;;;31.75;15.93;;;;;;;;;;4376552;32;20070;-66
2022/08/28 06:04:56;;;;;;;28.90;14.68;;;;;;;;;;4350758;32;20082;-65
2022/08/28 06:07:23;;;;;;;23.85;13.25;;;;;;;;;;4363016;32;20081;-65
2022/08/28 06:09:50;;;;;;;28.35;14.80;;;;;;;;;;4337835;32;20512;-66
2022/08/28 06:12:16;;;;;;;31.73;16.15;;;;;;;;;;4350778;32;20086;-65
2022/08/28 06:14:43;;;;;;;27.05;14.60;;;;;;;;;;4376346;32;20142;-65
2022/08/28 06:17:09;;;;;;;28.05;16.70;;;;;;;;;;4362473;32;20082;-65
2022/08/28 06:19:36;;;;;;;26.62;16.00;;;;;;;;;;4362537;32;20104;-66
2022/08/28 06:22:04;;;;;;;35.67;16.08;;;;;;;;;;4362392;32;20097;-65
2022/08/28 06:24:31;;;;;;;26.45;15.63;;;;;;;;;;4362272;32;20556;-65
2022/08/28 06:26:58;;;;;;;28.33;14.02;;;;;;;;;;4362652;32;20078;-65
2022/08/28 06:29:26;;;;;;;30.30;15.55;;;;;;;;;;4362722;32;20144;-65
2022/08/28 06:31:58;;;;;;;32.47;16.25;;;;;;;;;;4362548;32;20508;-65
2022/08/28 06:34:25;;;;;;;27.17;13.80;;;;;;;;;;4362536;32;20086;-65
2022/08/28 06:36:52;;;;;;;21.70;12.43;;;;;;;;;;4362406;32;20526;-66
2022/08/28 06:39:19;;;;;;;20.40;11.30;;;;;;;;;;4350104;32;20077;-65
2022/08/28 06:41:46;;;;;;;18.40;10.07;;;;;;;;;;4362954;32;20163;-65
2022/08/28 06:44:18;;;;;;;25.12;11.32;;;;;;;;;;4350132;32;20078;-66
2022/08/28 06:46:46;;;;;;;20.60;10.77;;;;;;;;;;4376106;32;20190;-65
2022/08/28 06:49:13;;;;;;;17.23;10.30;;;;;;;;;;4362612;32;20139;-65
2022/08/28 06:51:40;;;;;;;16.23;10.55;;;;;;;;;;4362616;32;20089;-66
2022/08/28 06:54:08;;;;;;;15.95;9.20;;;;;;;;;;4376007;32;20074;-65
2022/08/28 06:56:35;;;;;;;22.33;10.35;;;;;;;;;;4349676;32;20430;-66
2022/08/28 06:59:01;;;;;;;16.12;9.68;;;;;;;;;;4362484;32;20528;-66
2022/08/28 07:01:32;;;;;;;16.58;12.10;;;;;;;;;;4362607;32;20167;-66
2022/08/28 07:04:02;;;;;;;17.50;10.55;;;;;;;;;;4338128;32;20085;-65
2022/08/28 07:06:35;;;;;;;20.62;10.40;;;;;;;;;;4362883;32;20074;-65
2022/08/28 07:09:03;;;;;;;16.35;10.07;;;;;;;;;;4363006;32;20082;-66
2022/08/28 07:11:32;;;;;;;24.17;10.75;;;;;;;;;;4350131;32;20089;-66
2022/08/28 07:13:59;;;;;;;16.10;10.15;;;;;;;;;;4349873;32;20081;-65
2022/08/28 07:16:32;;;;;;;15.00;9.32;;;;;;;;;;4361983;32;20085;-65
2022/08/28 07:19:03;;;;;;;16.73;9.57;;;;;;;;;;4362413;32;20528;-65
2022/08/28 07:21:30;;;;;;;17.05;10.55;;;;;;;;;;4362840;32;20086;-65
2022/08/28 07:23:57;;;;;;;20.92;12.43;;;;;;;;;;4362461;32;20094;-65
2022/08/28 07:26:25;;;;;;;17.87;10.30;;;;;;;;;;4362242;32;20073;-65
2022/08/28 07:28:53;;;;;;;16.62;10.05;;;;;;;;;;4375586;32;20591;-65
2022/08/28 07:31:22;;;;;;;17.30;11.25;;;;;;;;;;4338158;32;20070;-65
2022/08/28 07:33:48;;;;;;;26.05;11.48;;;;;;;;;;4349562;32;20456;-65
2022/08/28 07:36:19;;;;;;;24.48;13.60;;;;;;;;;;4376069;32;20094;-66
2022/08/28 07:38:46;;;;;;;27.62;12.68;;;;;;;;;;4362007;32;20156;-65
2022/08/28 07:41:22;;;;;;;19.60;11.98;;;;;;;;;;4375821;32;20070;-67
2022/08/28 07:46:36;;;;;;;21.37;12.83;;;;;;;;;;4376720;32;20078;-65
2022/08/28 07:49:06;;;;;;;17.27;10.88;;;;;;;;;;4362313;32;20173;-66
2022/08/28 07:51:33;;;;;;;19.70;11.25;;;;;;;;;;4376452;32;20084;-66
2022/08/28 07:54:00;;;;;;;20.98;11.82;;;;;;;;;;4378774;32;20066;-66
2022/08/28 07:56:30;;;;;;;19.42;10.98;;;;;;;;;;4364503;32;20160;-66
2022/08/28 07:58:58;;;;;;;18.05;10.48;;;;;;;;;;4365035;32;20085;-65
2022/08/28 08:01:27;;;;;;;13.07;8.35;;;;;;;;;;4364444;32;20157;-65
2022/08/28 08:03:54;;;;;;;12.20;7.75;;;;;;;;;;4352321;32;20098;-65
2022/08/28 08:06:20;;;;;;;13.45;8.15;;;;;;;;;;4364380;32;20090;-65
2022/08/28 08:08:47;;;;;;;14.80;8.73;;;;;;;;;;4352003;32;20082;-65
2022/08/28 08:11:17;;;;;;;11.15;8.48;;;;;;;;;;4378178;32;20105;-65
2022/08/28 08:13:45;;;;;;;17.35;9.55;;;;;;;;;;4352025;32;20111;-65
2022/08/28 08:16:15;;;;;;;15.27;9.75;;;;;;;;;;4364744;32;20105;-64
2022/08/28 08:18:43;;;;;;;12.13;9.38;;;;;;;;;;4365290;32;20508;-65
2022/08/28 08:21:12;;;;;;;14.63;8.88;;;;;;;;;;4364844;32;20453;-64
2022/08/28 08:23:40;;;;;;;15.93;9.70;;;;;;;;;;4364455;32;20279;-65
2022/08/28 08:26:12;;;;;;;11.40;8.35;;;;;;;;;;4364585;32;20070;-65
2022/08/28 08:28:39;;;;;;;12.98;9.00;;;;;;;;;;4364860;32;20142;-67
2022/08/28 08:31:12;;;;;;;12.43;8.98;;;;;;;;;;4378062;32;20534;-65
2022/08/28 08:33:44;;;;;;;17.30;9.15;;;;;;;;;;4378153;32;20081;-65
2022/08/28 08:36:12;;;;;;;16.40;9.13;;;;;;;;;;4378272;32;20497;-65
2022/08/28 08:38:39;;;;;;;14.35;8.40;;;;;;;;;;4351802;32;20135;-64
2022/08/28 08:41:13;;;;;;;15.80;8.55;;;;;;;;;;4351609;32;20098;-65
2022/08/28 08:43:54;;;;;;;12.48;8.13;;;;;;;;;;4364404;32;20074;-64
2022/08/28 08:46:30;;;;;;;15.20;8.20;;;;;;;;;;4351366;32;20080;-65
2022/08/28 08:48:58;;;;;;;;;;;;;;;;;;4364671;32;20080;-65
2022/08/28 08:51:42;;;;;;;11.80;7.70;;;;;;;;;;4365066;32;20037;-65
2022/08/28 08:54:12;;;;;;;13.55;8.85;;;;;;;;;;4351648;32;20089;-64
2022/08/28 08:56:40;;;;;;;12.80;8.48;;;;;;;;;;4363829;32;20089;-66
2022/08/28 08:59:13;;;;;;;13.15;8.65;;;;;;;;;;4364449;32;20086;-65
2022/08/28 09:01:49;;;;;;;12.50;8.35;;;;;;;;;;4364069;32;20070;-67
2022/08/28 09:04:28;;;;;;;12.20;8.48;;;;;;;;;;4364151;32;20070;-65
2022/08/28 09:06:58;;;;;;;11.85;8.77;;;;;;;;;;4351320;32;20090;-64
2022/08/28 09:09:39;;;;;;;10.65;7.62;;;;;;;;;;4377772;32;20071;-65
2022/08/28 09:12:14;;;;;;;13.48;8.25;;;;;;;;;;4364770;32;20161;-65
2022/08/28 09:14:49;;;;;;;10.48;7.80;;;;;;;;;;4352105;32;20077;-66
2022/08/28 09:17:18;;;;;;;13.20;8.70;;;;;;;;;;4363695;32;20086;-65
2022/08/28 09:19:45;;;;;;;12.15;8.00;;;;;;;;;;4351284;32;20146;-66
2022/08/28 09:22:12;;;;;;;13.32;9.05;;;;;;;;;;4364156;32;20186;-66
2022/08/28 09:24:40;;;;;;;12.00;7.57;;;;;;;;;;4351775;32;20089;-66
2022/08/28 09:27:26;;;;;;;12.80;7.30;;;;;;;;;;4352782;32;20187;-66
2022/08/28 09:30:00;;;;;;;10.88;7.87;;;;;;;;;;4376860;32;20085;-66
2022/08/28 09:32:31;;;;;;;11.95;7.47;;;;;;;;;;4351176;32;20081;-66
2022/08/28 09:35:14;;;;;;;9.65;6.85;;;;;;;;;;4351484;32;20074;-66
2022/08/28 09:37:42;;;;;;;9.77;7.57;;;;;;;;;;4351513;32;20089;-67
2022/08/28 09:40:26;;;;;;;13.88;7.53;;;;;;;;;;3831982;37;20428;-65
2022/08/28 09:46:16;;;;;;;9.43;7.18;;;;;;;;;;4390429;32;20076;-65
2022/08/28 09:48:45;;;;;;;10.88;7.22;;;;;;;;;;4378271;32;20112;-65
2022/08/28 09:51:12;;;;;;;10.07;7.22;;;;;;;;;;4378483;32;20073;-65
2022/08/28 09:53:51;;;;;;;12.35;7.97;;;;;;;;;;4377921;32;20073;-66
2022/08/28 09:56:17;;;;;;;12.98;7.90;;;;;;;;;;4390677;32;20061;-66
2022/08/28 09:58:50;;;;;;;14.07;8.40;;;;;;;;;;4390323;32;20065;-66
2022/08/28 10:01:38;;;;;;;10.77;7.87;;;;;;;;;;4389893;32;20114;-66
2022/08/28 10:04:21;;;;;;;11.25;7.62;;;;;;;;;;4390344;32;20090;-67
2022/08/28 10:07:04;;;;;;;10.70;7.30;;;;;;;;;;4404335;32;20488;-66
2022/08/28 10:10:08;;;;;;;8.88;6.80;;;;;;;;;;4403828;32;20526;-66
2022/08/28 10:13:02;;;;;;;10.25;6.95;;;;;;;;;;4377647;32;20070;-67
2022/08/28 10:15:47;;;;;;;9.43;6.35;;;;;;;;;;4390598;32;20089;-67
2022/08/28 10:18:28;;;;;;;9.75;6.10;;;;;;;;;;4377434;32;20452;-65
2022/08/28 10:21:04;;;;;;;8.65;6.32;;;;;;;;;;4389970;32;20071;-65
2022/08/28 10:23:37;;;;;;;9.05;6.78;;;;;;;;;;4389824;32;20066;-65
2022/08/28 10:26:22;;;;;;;9.48;6.93;;;;;;;;;;4390173;32;20531;-65
2022/08/28 10:29:07;;;;;;;9.10;6.80;;;;;;;;;;4390114;32;20143;-64
2022/08/28 10:31:53;;;;;;;10.02;6.60;;;;;;;;;;4389824;32;20081;-65
2022/08/28 10:34:50;;;;;;;9.27;6.73;;;;;;;;;;4389827;32;20066;-66
2022/08/28 10:37:46;;;;;;;12.30;7.10;;;;;;;;;;4403954;32;20091;-66
2022/08/28 10:40:49;;;;;;;9.73;6.80;;;;;;;;;;4389243;32;20089;-66
2022/08/28 10:43:22;;;;;;;9.98;7.03;;;;;;;;;;4390590;32;20080;-64
2022/08/28 10:45:50;;;;;;;10.05;6.85;;;;;;;;;;4377015;32;20516;-66
2022/08/28 10:48:49;;;;;;;8.30;6.75;;;;;;;;;;4389439;32;20092;-67
2022/08/28 10:51:26;;;;;;;9.10;7.57;;;;;;;;;;4380896;32;20080;-66
2022/08/28 10:53:57;;;;;;;11.18;7.32;;;;;;;;;;4379480;32;20073;-66
2022/08/28 10:56:51;;;;;;;12.93;7.18;;;;;;;;;;4379385;32;20081;-67
2022/08/28 10:59:18;;;;;;;9.25;7.25;;;;;;;;;;4363870;32;20175;-66
2022/08/28 11:01:45;;;;;;;7.80;6.70;;;;;;;;;;4379150;32;20074;-66
2022/08/28 11:04:20;;;;;;;9.65;7.15;;;;;;;;;;4354353;32;20507;-66
2022/08/28 11:06:51;;;;;;;14.27;6.93;;;;;;;;;;4379604;32;20507;-65
2022/08/28 11:12:00;;;;;;;10.02;7.87;;;;;;;;;;3834113;37;20046;-65
2022/08/28 11:14:33;;;;;;;10.25;7.07;;;;;;;;;;4390647;32;20088;-66
2022/08/28 11:17:30;;;;;;;10.88;7.25;;;;;;;;;;4378322;32;20140;-66
2022/08/28 11:20:11;;;;;;;;;;;;;;;;;;4404579;32;20597;-65
2022/08/28 11:22:45;;;;;;;9.40;8.20;;;;;;;;;;4390488;32;20388;-67
2022/08/28 11:25:40;;;;;;;10.98;8.35;;;;;;;;;;4390703;32;20142;-66
2022/08/28 11:28:17;;;;;;;11.32;7.80;;;;;;;;;;4377381;32;20444;-65
2022/08/28 11:30:48;;;;;;;10.25;6.53;;;;;;;;;;4404221;32;20236;-66
2022/08/28 11:33:35;;;;;;;8.88;6.90;;;;;;;;;;4377651;32;20160;-65
2022/08/28 11:36:02;;;;;;;11.68;7.40;;;;;;;;;;4390822;32;20080;-65
2022/08/28 11:38:41;;;;;;;9.82;7.55;;;;;;;;;;4378233;32;20089;-66
2022/08/28 11:41:13;;;;;;;9.35;6.82;;;;;;;;;;4404584;32;20081;-66
2022/08/28 11:43:45;;;;;;;10.38;7.12;;;;;;;;;;4377625;32;20069;-65
2022/08/28 11:46:27;;;;;;;8.85;6.90;;;;;;;;;;4391263;32;20082;-66
2022/08/28 11:49:02;;;;;;;10.05;6.90;;;;;;;;;;4379189;32;20066;-66
2022/08/28 11:51:57;;;;;;;10.65;7.35;;;;;;;;;;4390197;32;20087;-65
2022/08/28 11:54:34;;;;;;;9.65;7.72;;;;;;;;;;4377816;32;20456;-65
2022/08/28 11:57:24;;;;;;;8.88;7.30;;;;;;;;;;4390141;32;20169;-66
2022/08/28 12:00:09;;;;;;;10.02;7.15;;;;;;;;;;4389890;32;20065;-67
2022/08/28 12:02:39;;;;;;;10.45;7.72;;;;;;;;;;4403951;32;20089;-65
2022/08/28 12:05:05;;;;;;;10.80;7.28;;;;;;;;;;4403803;32;20527;-66
2022/08/28 12:07:40;;;;;;;9.32;7.07;;;;;;;;;;4403923;32;20156;-65
2022/08/28 12:10:26;;;;;;;11.82;7.43;;;;;;;;;;4377142;32;20074;-65
2022/08/28 12:13:06;;;;;;;11.63;7.00;;;;;;;;;;4376606;32;20449;-66
2022/08/28 12:15:32;;;;;;;8.73;6.70;;;;;;;;;;4390255;32;20100;-66
2022/08/28 12:18:04;;;;;;;11.40;7.55;;;;;;;;;;4389478;32;20440;-65
2022/08/28 12:20:49;;;;;;;9.88;7.15;;;;;;;;;;4364021;32;20066;-66
2022/08/28 12:23:28;;;;;;;9.35;7.43;;;;;;;;;;4393593;32;20515;-66
2022/08/28 12:26:23;;;;;;;11.20;7.43;;;;;;;;;;4393720;32;20125;-65
2022/08/28 12:28:57;;;;;;;12.80;8.57;;;;;;;;;;4369911;32;20081;-67
2022/08/28 12:34:42;;;;;;;10.95;6.87;;;;;;;;;;4393672;32;20133;-67
2022/08/28 12:37:38;;;;;;;11.10;7.53;;;;;;;;;;4354679;32;20525;-67
2022/08/28 12:40:18;;;;;;;9.57;7.53;;;;;;;;;;4367266;32;20114;-66
2022/08/28 12:42:52;;;;;;;11.05;7.87;;;;;;;;;;4379196;32;20078;-64
2022/08/28 12:45:53;;;;;;;10.55;7.80;;;;;;;;;;4393706;32;20077;-66
2022/08/28 12:48:22;;;;;;;10.57;8.15;;;;;;;;;;4393104;32;20090;-66
2022/08/28 12:50:58;;;;;;;11.00;7.37;;;;;;;;;;4392850;32;20149;-66
2022/08/28 12:53:25;;;;;;;10.35;6.97;;;;;;;;;;4379552;32;20090;-66
2022/08/28 12:55:52;;;;;;;12.77;7.90;;;;;;;;;;4367127;32;20152;-66
2022/08/28 12:58:35;;;;;;;12.15;7.75;;;;;;;;;;4393222;32;20081;-65
2022/08/28 13:01:13;;;;;;;13.18;8.15;;;;;;;;;;4367090;32;20097;-66
2022/08/28 13:03:51;;;;;;;10.57;7.85;;;;;;;;;;4393115;32;20070;-67
2022/08/28 13:06:44;;;;;;;9.15;7.28;;;;;;;;;;4366513;32;20111;-66
2022/08/28 13:09:17;;;;;;;9.30;7.30;;;;;;;;;;4363327;32;20134;-65
2022/08/28 13:11:50;;;;;;;10.63;6.85;;;;;;;;;;4392434;32;20081;-66
2022/08/28 13:14:43;;;;;;;11.20;7.62;;;;;;;;;;4392982;32;20082;-66
2022/08/28 13:17:11;;;;;;;11.88;8.40;;;;;;;;;;4366628;32;20081;-66
2022/08/28 13:19:37;;;;;;;12.93;7.93;;;;;;;;;;4365933;32;20455;-66
2022/08/28 13:22:33;;;;;;;10.65;8.20;;;;;;;;;;4378943;32;20087;-65
2022/08/28 13:25:01;;;;;;;13.80;7.97;;;;;;;;;;4378495;32;20069;-65
2022/08/28 13:27:29;;;;;;;14.30;8.07;;;;;;;;;;4365906;32;20073;-65
2022/08/28 13:29:57;;;;;;;13.68;9.38;;;;;;;;;;4366193;32;20224;-66
2022/08/28 13:32:24;;;;;;;13.25;8.07;;;;;;;;;;4366669;32;20162;-65
2022/08/28 13:35:12;;;;;;;13.52;8.23;;;;;;;;;;4366104;32;20435;-66
2022/08/28 13:37:53;;;;;;;12.27;7.85;;;;;;;;;;4353472;32;20084;-66
2022/08/28 13:40:22;;;;;;;11.07;7.95;;;;;;;;;;4354365;32;20090;-65
2022/08/28 13:42:49;;;;;;;14.93;8.57;;;;;;;;;;4365798;32;20570;-66
2022/08/28 13:45:16;;;;;;;10.95;7.25;;;;;;;;;;4392392;32;20104;-65
2022/08/28 13:47:42;;;;;;;9.52;7.43;;;;;;;;;;4378271;32;20073;-65
2022/08/28 13:50:09;;;;;;;15.38;8.38;;;;;;;;;;4378808;32;20070;-65
2022/08/28 13:52:36;;;;;;;11.65;7.40;;;;;;;;;;4392201;32;20234;-66
2022/08/28 13:55:03;;;;;;;11.98;8.20;;;;;;;;;;4366214;32;20101;-66
2022/08/28 13:57:30;;;;;;;15.18;8.10;;;;;;;;;;4378339;32;20081;-66
2022/08/28 13:59:58;;;;;;;10.23;7.62;;;;;;;;;;4365653;32;20089;-66
2022/08/28 14:05:10;;;;;;;11.68;7.95;;;;;;;;;;4380310;32;20084;-65
2022/08/28 14:07:38;;;;;;;12.18;8.25;;;;;;;;;;4380146;32;20068;-64
2022/08/28 14:10:06;;;;;;;11.95;7.55;;;;;;;;;;4396435;32;20456;-65
2022/08/28 14:12:32;;;;;;;10.60;7.87;;;;;;;;;;4392420;32;20156;-66
2022/08/28 14:15:00;;;;;;;12.50;7.93;;;;;;;;;;4377833;32;20192;-65
2022/08/28 14:17:26;;;;;;;12.13;7.97;;;;;;;;;;4365466;32;20081;-65
2022/08/28 14:19:53;;;;;;;11.43;7.60;;;;;;;;;;4377646;32;20093;-65
2022/08/28 14:22:20;;;;;;;14.13;7.78;;;;;;;;;;4378198;32;20573;-65
2022/08/28 14:24:46;;;;;;;15.13;8.40;;;;;;;;;;4365545;32;20088;-66
2022/08/28 14:27:13;;;;;;;13.38;7.85;;;;;;;;;;4377615;32;20508;-66
2022/08/28 14:29:39;;;;;;;13.73;7.78;;;;;;;;;;4391222;32;20079;-67
2022/08/28 14:32:06;;;;;;;13.57;8.35;;;;;;;;;;4378058;32;20150;-66
2022/08/28 14:34:33;;;;;;;11.32;8.05;;;;;;;;;;4391555;32;20174;-65
2022/08/28 14:37:00;;;;;;;12.73;8.07;;;;;;;;;;4365425;32;20087;-66
2022/08/28 14:39:28;;;;;;;15.10;8.48;;;;;;;;;;4378044;32;20084;-66
2022/08/28 14:41:54;;;;;;;11.57;7.93;;;;;;;;;;4391345;32;20318;-66
2022/08/28 14:44:22;;;;;;;13.60;7.97;;;;;;;;;;4364594;32;20468;-67
2022/08/28 14:46:51;;;;;;;12.60;7.68;;;;;;;;;;4365680;32;20144;-67
2022/08/28 14:49:18;;;;;;;10.18;7.60;;;;;;;;;;4391580;32;20077;-66
2022/08/28 14:51:47;;;;;;;14.48;8.15;;;;;;;;;;4391281;32;20170;-65
2022/08/28 14:54:17;;;;;;;14.00;8.30;;;;;;;;;;4365247;32;20150;-66
2022/08/28 14:56:45;;;;;;;12.75;8.82;;;;;;;;;;4377786;32;20099;-65
2022/08/28 14:59:14;;;;;;;18.35;9.55;;;;;;;;;;4377490;32;20073;-65
2022/08/28 15:01:41;;;;;;;17.70;9.88;;;;;;;;;;4377631;32;20070;-66
2022/08/28 15:04:11;;;;;;;16.95;10.00;;;;;;;;;;4377553;32;20099;-66